Time;durP1;ratioP1;P1;durP2;ratioP2;P2;SDS_P1;SDS_P2;PMS_P1;PMS_P2;Temp;Humidity;BMP_temperature;BMP_pressure;BME280_temperature;BME280_humidity;BME280_pressure;Samples;Min_cycle;Max_cycle;Signal;HPM_P1;HPM_P2
2021/01/25 00:01:08;;;;;;;22.85;17.20;;;1.50;92.70;;;;;;5045105;28;20018;-77
2021/01/25 00:03:34;;;;;;;20.58;16.10;;;1.50;92.80;;;;;;5047907;28;20063;-75
2021/01/25 00:06:00;;;;;;;20.05;15.77;;;1.40;92.80;;;;;;5048701;28;20056;-74
2021/01/25 00:08:25;;;;;;;19.38;16.02;;;1.50;92.90;;;;;;5049312;28;20029;-74
2021/01/25 00:10:53;;;;;;;19.90;15.90;;;1.50;92.90;;;;;;5043492;28;20120;-75
2021/01/25 00:13:18;;;;;;;18.17;15.35;;;1.40;92.80;;;;;;5040669;28;20067;-74
2021/01/25 00:15:47;;;;;;;17.95;14.80;;;1.40;92.90;;;;;;5044200;28;20057;-74
2021/01/25 00:18:13;;;;;;;20.73;16.45;;;1.30;92.90;;;;;;5042539;28;20021;-74
2021/01/25 00:20:39;;;;;;;19.15;15.70;;;1.30;93.00;;;;;;5044756;28;20048;-77
2021/01/25 00:23:04;;;;;;;20.25;15.50;;;1.30;93.00;;;;;;5040715;28;20049;-73
2021/01/25 00:25:30;;;;;;;20.55;15.70;;;1.30;93.10;;;;;;5045670;28;20029;-74
2021/01/25 00:27:56;;;;;;;20.40;15.77;;;1.20;93.00;;;;;;5049036;28;20418;-74
2021/01/25 00:30:22;;;;;;;18.50;15.23;;;1.20;93.10;;;;;;5046039;28;20152;-75
2021/01/25 00:32:47;;;;;;;20.77;16.27;;;1.20;93.00;;;;;;5053049;28;20028;-74
2021/01/25 00:35:13;;;;;;;19.50;15.90;;;1.10;93.00;;;;;;5047070;28;20506;-74
2021/01/25 00:37:39;;;;;;;20.05;16.20;;;1.10;93.00;;;;;;5049945;28;20025;-74
2021/01/25 00:40:06;;;;;;;22.30;17.40;;;1.10;93.10;;;;;;5051936;28;20082;-80
2021/01/25 00:42:33;;;;;;;23.73;17.90;;;1.10;93.10;;;;;;5054597;28;20029;-75
2021/01/25 00:44:59;;;;;;;20.85;16.30;;;1.10;93.10;;;;;;5048529;28;20025;-74
2021/01/25 00:47:24;;;;;;;21.02;16.85;;;1.00;93.20;;;;;;5044592;28;20032;-75
2021/01/25 00:49:50;;;;;;;20.98;16.23;;;1.00;93.20;;;;;;5050424;28;20033;-77
2021/01/25 00:52:16;;;;;;;21.25;17.42;;;1.00;93.20;;;;;;5048637;28;20719;-74
2021/01/25 00:54:41;;;;;;;20.95;17.63;;;1.00;93.30;;;;;;5046143;28;20391;-75
2021/01/25 00:57:07;;;;;;;22.75;17.88;;;0.90;93.30;;;;;;5048434;28;20067;-74
2021/01/25 00:59:32;;;;;;;22.67;17.73;;;1.00;93.40;;;;;;5047890;28;20037;-76
2021/01/25 01:01:58;;;;;;;22.50;17.63;;;1.00;93.40;;;;;;5045964;28;20083;-76
2021/01/25 01:04:24;;;;;;;22.60;18.23;;;1.00;93.40;;;;;;5047994;28;20115;-74
2021/01/25 01:06:49;;;;;;;21.42;17.48;;;0.90;93.40;;;;;;5046712;28;20018;-73
2021/01/25 01:09:15;;;;;;;24.17;18.10;;;1.00;93.50;;;;;;5050117;28;20116;-76
2021/01/25 01:11:41;;;;;;;23.17;17.98;;;0.90;93.40;;;;;;5050481;28;20035;-74
2021/01/25 01:14:06;;;;;;;23.05;18.40;;;1.00;93.50;;;;;;5045623;28;20435;-79
2021/01/25 01:16:32;;;;;;;21.15;16.73;;;0.90;93.50;;;;;;5045842;28;20082;-74
2021/01/25 01:18:58;;;;;;;20.33;16.40;;;0.90;93.50;;;;;;5044403;28;20024;-74
2021/01/25 01:21:23;;;;;;;21.52;17.35;;;0.80;93.40;;;;;;5050538;28;20655;-77
2021/01/25 01:23:49;;;;;;;20.77;16.30;;;0.80;93.40;;;;;;5049187;28;20150;-72
2021/01/25 01:26:15;;;;;;;24.33;17.05;;;0.80;93.40;;;;;;5044415;28;20472;-74
2021/01/25 01:28:41;;;;;;;20.55;16.42;;;0.70;93.40;;;;;;5042940;28;20061;-74
2021/01/25 01:31:06;;;;;;;19.25;15.70;;;0.70;93.40;;;;;;5048011;28;20414;-76
2021/01/25 01:33:32;;;;;;;21.58;16.20;;;0.70;93.40;;;;;;5052923;28;20090;-75
2021/01/25 01:35:58;;;;;;;22.25;17.08;;;0.70;93.50;;;;;;5051860;28;20391;-74
2021/01/25 01:38:24;;;;;;;19.10;15.73;;;0.70;93.50;;;;;;5044136;28;20036;-77
2021/01/25 01:40:49;;;;;;;22.27;16.48;;;0.60;93.40;;;;;;5047641;28;20595;-73
2021/01/25 01:43:15;;;;;;;20.67;15.38;;;0.60;93.30;;;;;;5046792;28;20043;-77
2021/01/25 01:45:40;;;;;;;23.52;16.95;;;0.50;93.30;;;;;;5046214;28;20048;-77
2021/01/25 01:48:07;;;;;;;23.92;18.92;;;0.50;93.30;;;;;;5051118;28;20044;-74
2021/01/25 01:50:33;;;;;;;25.58;19.00;;;0.40;93.40;;;;;;5049669;28;20037;-74
2021/01/25 01:52:58;;;;;;;23.45;17.98;;;0.40;93.50;;;;;;5044943;28;20104;-75
2021/01/25 01:55:24;;;;;;;20.95;16.48;;;0.40;93.60;;;;;;5047238;28;20440;-75
2021/01/25 01:57:52;;;;;;;22.67;17.52;;;0.40;93.60;;;;;;5045877;28;20432;-74
2021/01/25 02:00:19;;;;;;;25.73;18.17;;;0.40;93.70;;;;;;5046158;28;20084;-74
2021/01/25 02:02:45;;;;;;;24.10;19.65;;;0.50;93.80;;;;;;5045199;28;20033;-74
2021/01/25 02:05:11;;;;;;;25.48;19.15;;;0.50;93.80;;;;;;5045813;28;20039;-75
2021/01/25 02:07:40;;;;;;;26.30;19.45;;;0.50;93.80;;;;;;5046257;28;20040;-74
2021/01/25 02:10:07;;;;;;;23.45;18.27;;;0.50;93.80;;;;;;5045582;28;20116;-74
2021/01/25 02:12:34;;;;;;;22.60;17.98;;;0.50;93.80;;;;;;5044388;28;20112;-77
2021/01/25 02:15:01;;;;;;;25.20;18.70;;;0.60;93.80;;;;;;5047034;28;20032;-78
2021/01/25 02:17:27;;;;;;;22.38;18.30;;;0.60;93.80;;;;;;5044385;28;20110;-74
2021/01/25 02:20:02;;;;;;;22.10;18.25;;;0.60;93.80;;;;;;5045267;28;20032;-74
2021/01/25 02:22:36;;;;;;;;;;;0.60;93.80;;;;;;5045748;28;20033;-74
2021/01/25 02:25:15;;;;;;;21.85;16.50;;;0.60;93.70;;;;;;5045392;28;19916;-74
2021/01/25 02:27:44;;;;;;;24.95;17.85;;;0.70;93.70;;;;;;5060851;28;20082;-75
2021/01/25 02:30:12;;;;;;;21.45;17.10;;;0.70;93.60;;;;;;5044244;28;20300;-74
2021/01/25 02:32:38;;;;;;;25.95;18.98;;;0.70;93.60;;;;;;5040928;28;20079;-77
2021/01/25 02:35:16;;;;;;;23.55;17.38;;;0.80;93.60;;;;;;5045683;28;20068;-73
2021/01/25 02:37:43;;;;;;;23.50;18.23;;;0.80;93.50;;;;;;5050804;28;20045;-74
2021/01/25 02:40:12;;;;;;;22.52;17.63;;;0.80;93.40;;;;;;5047111;28;20527;-71
2021/01/25 02:42:40;;;;;;;24.08;17.50;;;0.90;93.40;;;;;;5046206;28;20167;-74
2021/01/25 02:45:07;;;;;;;20.33;16.45;;;0.90;93.30;;;;;;5043686;28;20029;-75
2021/01/25 02:47:35;;;;;;;21.75;17.40;;;1.00;93.20;;;;;;5049023;28;20025;-74
2021/01/25 02:50:01;;;;;;;20.83;16.65;;;1.00;93.20;;;;;;5045198;28;20038;-75
2021/01/25 02:52:27;;;;;;;20.58;16.40;;;1.00;93.20;;;;;;5045541;28;20020;-74
2021/01/25 02:54:54;;;;;;;22.40;16.40;;;1.10;93.20;;;;;;5048394;28;20149;-73
2021/01/25 02:57:20;;;;;;;22.83;16.75;;;1.10;93.00;;;;;;5044917;28;20041;-75
2021/01/25 02:59:47;;;;;;;21.38;17.40;;;1.10;93.00;;;;;;5043933;28;20045;-74
2021/01/25 03:02:14;;;;;;;21.63;15.80;;;1.10;92.90;;;;;;5048020;28;20495;-74
2021/01/25 03:04:41;;;;;;;19.23;16.13;;;1.10;92.90;;;;;;5046378;28;20118;-74
2021/01/25 03:07:06;;;;;;;18.80;15.07;;;1.10;92.70;;;;;;5044693;28;20029;-78
2021/01/25 03:09:32;;;;;;;19.48;15.43;;;1.10;92.60;;;;;;5046284;28;20032;-74
2021/01/25 03:12:00;;;;;;;21.08;16.40;;;1.10;92.50;;;;;;5045300;28;20403;-77
2021/01/25 03:14:26;;;;;;;23.95;18.05;;;1.00;92.40;;;;;;5046324;28;20439;-74
2021/01/25 03:16:52;;;;;;;23.23;17.00;;;1.00;92.30;;;;;;5045966;28;20106;-76
2021/01/25 03:19:17;;;;;;;23.05;18.63;;;1.00;92.20;;;;;;5044224;28;20124;-74
2021/01/25 03:21:50;;;;;;;21.88;16.15;;;1.00;92.20;;;;;;5045404;28;20033;-77
2021/01/25 03:24:17;;;;;;;20.92;17.13;;;1.00;92.20;;;;;;5044978;28;20043;-75
2021/01/25 03:26:43;;;;;;;25.38;17.35;;;1.00;92.10;;;;;;5046673;28;20116;-75
2021/01/25 03:29:09;;;;;;;24.05;18.02;;;1.00;92.10;;;;;;5041326;28;20119;-75
2021/01/25 03:31:35;;;;;;;21.02;16.70;;;1.00;92.10;;;;;;5044460;28;20087;-75
2021/01/25 03:34:01;;;;;;;22.67;17.35;;;1.00;92.20;;;;;;5044365;28;20033;-74
2021/01/25 03:36:28;;;;;;;25.90;17.58;;;1.10;92.30;;;;;;5044686;28;20112;-73
2021/01/25 03:38:53;;;;;;;23.92;17.85;;;1.00;92.20;;;;;;5044605;28;20112;-74
2021/01/25 03:41:19;;;;;;;26.98;18.88;;;1.00;92.20;;;;;;5047734;28;20112;-75
2021/01/25 03:43:44;;;;;;;24.30;18.98;;;0.90;92.30;;;;;;5045774;28;20449;-74
2021/01/25 03:46:10;;;;;;;23.50;18.55;;;0.90;92.50;;;;;;5045797;28;20045;-76
2021/01/25 03:48:36;;;;;;;26.80;19.42;;;1.00;92.60;;;;;;5043960;28;20510;-76
2021/01/25 03:51:01;;;;;;;26.88;19.80;;;1.00;92.70;;;;;;5045705;28;20041;-75
2021/01/25 03:53:27;;;;;;;26.65;19.67;;;1.00;92.70;;;;;;5046642;28;20036;-74
2021/01/25 03:55:53;;;;;;;25.20;19.38;;;1.10;92.80;;;;;;5047352;28;20537;-74
2021/01/25 03:58:18;;;;;;;28.27;20.30;;;1.10;92.80;;;;;;5042268;28;20033;-77
2021/01/25 04:00:44;;;;;;;22.88;18.35;;;1.10;92.80;;;;;;5044748;28;20045;-80
2021/01/25 04:03:10;;;;;;;23.92;18.77;;;1.10;92.90;;;;;;5047560;28;20040;-72
2021/01/25 04:05:35;;;;;;;25.15;19.08;;;1.20;92.90;;;;;;5050553;28;20087;-75
2021/01/25 04:08:01;;;;;;;23.55;18.05;;;1.30;92.80;;;;;;5048251;28;20033;-74
2021/01/25 04:10:27;;;;;;;23.00;18.00;;;1.20;92.80;;;;;;5049717;28;20376;-79
2021/01/25 04:12:52;;;;;;;21.77;17.23;;;1.30;92.80;;;;;;5048228;28;20045;-74
2021/01/25 04:15:18;;;;;;;21.27;17.52;;;1.30;92.80;;;;;;5046838;28;20072;-74
2021/01/25 04:17:44;;;;;;;21.65;17.38;;;1.20;92.80;;;;;;5048475;28;20029;-74
2021/01/25 04:20:10;;;;;;;22.70;17.65;;;1.20;92.80;;;;;;5048560;28;20368;-74
2021/01/25 04:22:37;;;;;;;22.50;17.38;;;1.20;92.70;;;;;;5045600;28;20044;-74
2021/01/25 04:25:04;;;;;;;22.10;17.63;;;1.20;92.60;;;;;;5045289;28;20094;-75
2021/01/25 04:27:30;;;;;;;21.15;16.63;;;1.20;92.50;;;;;;5048639;28;20031;-75
2021/01/25 04:29:56;;;;;;;25.20;17.77;;;1.10;92.40;;;;;;5048906;28;20029;-75
2021/01/25 04:32:22;;;;;;;28.98;17.90;;;1.10;92.40;;;;;;5047770;28;20028;-77
2021/01/25 04:34:48;;;;;;;24.67;19.35;;;1.10;92.30;;;;;;5045762;28;20166;-73
2021/01/25 04:37:14;;;;;;;23.98;19.27;;;1.20;92.30;;;;;;5047852;28;20484;-73
2021/01/25 04:39:39;;;;;;;24.60;18.90;;;1.20;92.10;;;;;;5050850;28;20448;-73
2021/01/25 04:42:05;;;;;;;29.70;20.20;;;1.20;92.10;;;;;;5046571;28;20028;-75
2021/01/25 04:44:31;;;;;;;24.20;19.48;;;1.30;92.20;;;;;;5048208;28;20033;-74
2021/01/25 04:47:00;;;;;;;27.10;20.98;;;1.30;92.20;;;;;;5041477;28;20037;-73
2021/01/25 04:49:28;;;;;;;25.95;21.00;;;1.30;92.30;;;;;;5049902;28;20461;-76
2021/01/25 04:51:54;;;;;;;25.75;20.70;;;1.30;92.40;;;;;;5049572;28;20074;-74
2021/01/25 04:54:20;;;;;;;27.08;21.80;;;1.30;92.40;;;;;;5050389;28;20380;-77
2021/01/25 04:56:46;;;;;;;27.65;21.65;;;1.30;92.40;;;;;;5049176;28;20036;-74
2021/01/25 04:59:12;;;;;;;27.67;21.52;;;1.30;92.50;;;;;;5046721;28;20495;-73
2021/01/25 05:01:38;;;;;;;28.55;21.67;;;1.40;92.50;;;;;;5047571;28;20108;-73
2021/01/25 05:04:04;;;;;;;28.90;22.48;;;1.40;92.50;;;;;;5046968;28;20429;-75
2021/01/25 05:06:30;;;;;;;27.67;21.98;;;1.40;92.60;;;;;;5046615;28;20527;-74
2021/01/25 05:08:55;;;;;;;28.15;22.08;;;1.40;92.50;;;;;;5049007;28;20029;-76
2021/01/25 05:11:21;;;;;;;28.30;21.55;;;1.40;92.60;;;;;;5047626;28;20132;-75
2021/01/25 05:13:47;;;;;;;27.15;22.70;;;1.40;92.60;;;;;;5045321;28;20663;-73
2021/01/25 05:16:20;;;;;;;32.00;23.50;;;1.40;92.70;;;;;;5047757;28;20037;-76
2021/01/25 05:19:00;;;;;;;30.45;23.77;;;1.40;92.70;;;;;;5048371;28;20124;-75
2021/01/25 05:21:37;;;;;;;28.85;21.77;;;1.40;92.70;;;;;;5045034;28;20808;-76
2021/01/25 05:24:05;;;;;;;31.65;23.95;;;1.40;92.70;;;;;;5048014;28;20119;-74
2021/01/25 05:26:31;;;;;;;34.45;26.60;;;1.50;92.70;;;;;;5044015;28;20108;-75
2021/01/25 05:28:56;;;;;;;34.05;25.33;;;1.40;92.70;;;;;;5046179;28;20029;-75
2021/01/25 05:31:24;;;;;;;33.80;25.05;;;1.40;92.80;;;;;;5044515;28;20032;-74
2021/01/25 05:33:51;;;;;;;34.13;24.73;;;1.50;92.80;;;;;;5046805;28;20476;-73
2021/01/25 05:36:35;;;;;;;34.10;26.25;;;1.50;92.90;;;;;;5046538;28;20041;-76
2021/01/25 05:39:03;;;;;;;36.35;27.15;;;1.60;92.90;;;;;;5046322;28;20033;-74
2021/01/25 05:41:29;;;;;;;41.08;28.58;;;1.60;92.80;;;;;;5043327;28;20037;-75
2021/01/25 05:43:55;;;;;;;36.60;28.00;;;1.50;92.90;;;;;;5043452;28;20040;-76
2021/01/25 05:46:20;;;;;;;39.00;28.30;;;1.60;92.90;;;;;;5043036;28;20043;-74
2021/01/25 05:48:59;;;;;;;38.88;28.65;;;1.60;92.90;;;;;;5046446;28;20107;-75
2021/01/25 05:51:31;;;;;;;40.50;28.50;;;1.60;93.00;;;;;;5043108;28;20055;-74
2021/01/25 05:54:01;;;;;;;47.25;30.90;;;1.50;93.00;;;;;;5043553;28;20048;-75
2021/01/25 05:56:26;;;;;;;57.03;34.33;;;1.60;93.20;;;;;;5046206;28;20052;-74
2021/01/25 05:58:52;;;;;;;59.42;34.22;;;1.50;93.30;;;;;;5045157;28;20059;-78
2021/01/25 06:01:21;;;;;;;58.58;34.67;;;1.60;93.40;;;;;;5044604;28;20476;-74
2021/01/25 06:03:47;;;;;;;58.22;35.17;;;1.60;93.50;;;;;;5046267;28;20037;-75
2021/01/25 06:06:20;;;;;;;62.50;35.60;;;1.60;93.50;;;;;;5044488;28;20472;-73
2021/01/25 06:09:00;;;;;;;62.33;35.45;;;1.60;93.50;;;;;;5044538;28;20417;-75
2021/01/25 06:11:31;;;;;;;56.30;31.63;;;1.60;93.50;;;;;;5046041;28;20032;-74
2021/01/25 06:14:09;;;;;;;49.78;30.02;;;1.60;93.30;;;;;;5044852;28;20088;-74
2021/01/25 06:16:35;;;;;;;52.75;29.42;;;1.60;93.10;;;;;;5044712;28;20163;-76
2021/01/25 06:19:09;;;;;;;51.20;29.70;;;1.60;92.80;;;;;;5043696;28;20497;-75
2021/01/25 06:21:39;;;;;;;49.43;29.97;;;1.60;92.50;;;;;;5046590;28;20029;-74
2021/01/25 06:24:06;;;;;;;45.17;27.80;;;1.60;92.40;;;;;;5043722;28;20040;-77
2021/01/25 06:26:33;;;;;;;44.92;28.45;;;1.70;92.30;;;;;;5045203;28;20179;-77
2021/01/25 06:29:01;;;;;;;46.92;28.30;;;1.70;92.20;;;;;;5051127;28;20602;-78
2021/01/25 06:31:27;;;;;;;47.67;30.00;;;1.70;92.10;;;;;;5047177;28;20025;-75
2021/01/25 06:33:52;;;;;;;46.20;28.55;;;1.70;92.20;;;;;;5046114;28;20040;-78
2021/01/25 06:36:20;;;;;;;47.92;30.92;;;1.70;92.10;;;;;;5042498;28;20051;-75
2021/01/25 06:38:49;;;;;;;46.95;29.35;;;1.70;92.10;;;;;;5042466;28;21575;-74
2021/01/25 06:41:16;;;;;;;48.58;27.73;;;1.70;92.10;;;;;;5047179;28;20488;-74
2021/01/25 06:43:45;;;;;;;45.53;28.65;;;1.70;92.20;;;;;;5043405;28;21152;-75
2021/01/25 06:46:16;;;;;;;49.67;30.05;;;1.60;92.10;;;;;;5060291;28;20068;-75
2021/01/25 06:48:47;;;;;;;50.50;30.45;;;1.70;92.10;;;;;;5045802;28;20037;-73
2021/01/25 06:51:14;;;;;;;48.10;30.60;;;1.70;92.10;;;;;;5041317;28;20033;-73
2021/01/25 06:53:41;;;;;;;47.95;30.55;;;1.70;92.10;;;;;;5043221;28;20044;-73
2021/01/25 06:56:07;;;;;;;51.05;31.30;;;1.70;92.10;;;;;;5043140;28;20033;-73
2021/01/25 06:58:33;;;;;;;47.85;30.20;;;1.70;92.00;;;;;;5044438;28;20056;-73
2021/01/25 07:01:08;;;;;;;47.35;30.65;;;1.70;92.10;;;;;;5044501;28;20110;-74
2021/01/25 07:04:03;;;;;;;;;;;1.70;92.10;;;;;;5042251;28;20037;-74
2021/01/25 07:06:38;;;;;;;45.72;29.02;;;1.80;92.00;;;;;;5030509;28;19921;-73
2021/01/25 07:09:06;;;;;;;41.40;28.60;;;1.70;91.80;;;;;;5042579;28;20049;-74
2021/01/25 07:11:33;;;;;;;42.70;28.17;;;1.70;91.80;;;;;;5047827;28;20071;-73
2021/01/25 07:13:59;;;;;;;42.53;29.00;;;1.70;91.50;;;;;;5046280;28;20091;-73
2021/01/25 07:16:25;;;;;;;41.08;27.42;;;1.70;91.50;;;;;;5044463;28;20047;-74
2021/01/25 07:18:52;;;;;;;35.60;24.98;;;1.70;91.20;;;;;;5044030;28;20029;-71
2021/01/25 07:21:18;;;;;;;36.58;24.88;;;1.70;90.60;;;;;;5042016;28;20037;-69
2021/01/25 07:23:45;;;;;;;35.92;24.27;;;1.80;90.40;;;;;;5043745;28;20041;-69
2021/01/25 07:26:13;;;;;;;36.20;25.98;;;1.80;90.20;;;;;;5046197;28;20036;-69
2021/01/25 07:28:39;;;;;;;39.58;26.33;;;1.80;90.30;;;;;;5045013;28;20391;-69
2021/01/25 07:31:06;;;;;;;36.30;25.10;;;1.80;90.30;;;;;;5042559;28;20029;-70
2021/01/25 07:33:31;;;;;;;40.38;27.58;;;1.70;90.40;;;;;;5044477;28;20045;-70
2021/01/25 07:36:00;;;;;;;39.63;26.88;;;1.70;90.40;;;;;;5044766;28;20083;-70
2021/01/25 07:38:28;;;;;;;39.20;25.00;;;1.70;90.50;;;;;;5047156;28;20025;-74
2021/01/25 07:40:58;;;;;;;37.42;25.65;;;1.60;90.50;;;;;;5046081;28;20495;-70
2021/01/25 07:43:30;;;;;;;36.95;26.33;;;1.60;90.50;;;;;;5047049;28;20080;-69
2021/01/25 07:46:07;;;;;;;43.60;27.67;;;1.60;90.50;;;;;;5049873;28;20059;-69
2021/01/25 07:48:34;;;;;;;47.63;28.67;;;1.50;90.60;;;;;;5061248;28;20048;-69
2021/01/25 07:50:59;;;;;;;41.45;28.83;;;1.50;90.70;;;;;;5050405;28;20041;-70
2021/01/25 07:53:33;;;;;;;44.50;30.13;;;1.50;90.70;;;;;;5048357;28;20061;-69
2021/01/25 07:55:59;;;;;;;47.20;31.75;;;1.50;90.80;;;;;;5047380;28;20064;-69
2021/01/25 07:58:25;;;;;;;44.08;29.98;;;1.60;90.80;;;;;;5053878;28;20080;-69
2021/01/25 08:00:50;;;;;;;47.05;31.63;;;1.60;90.70;;;;;;5049264;28;20067;-69
2021/01/25 08:03:28;;;;;;;43.28;28.70;;;1.60;90.80;;;;;;5047426;28;20045;-70
2021/01/25 08:05:55;;;;;;;45.50;30.38;;;1.60;90.70;;;;;;5050179;28;20063;-69
2021/01/25 08:08:23;;;;;;;47.95;31.95;;;1.60;90.70;;;;;;5047005;28;20476;-70
2021/01/25 08:10:49;;;;;;;43.50;29.35;;;1.60;90.60;;;;;;5050335;28;20076;-69
2021/01/25 08:13:18;;;;;;;43.88;29.52;;;1.60;90.40;;;;;;5046356;28;20496;-69
2021/01/25 08:16:03;;;;;;;45.85;30.02;;;1.60;90.30;;;;;;5047333;28;20353;-70
2021/01/25 08:18:50;;;;;;;44.72;30.85;;;1.60;90.30;;;;;;5046607;28;20191;-69
2021/01/25 08:21:20;;;;;;;47.45;30.08;;;1.60;90.30;;;;;;5050808;28;20044;-69
2021/01/25 08:23:49;;;;;;;51.50;33.45;;;1.60;90.40;;;;;;5045922;28;20483;-69
2021/01/25 08:26:22;;;;;;;55.33;35.72;;;1.60;90.50;;;;;;5044532;28;20486;-69
2021/01/25 08:29:00;;;;;;;52.85;33.70;;;1.60;90.60;;;;;;5045029;28;20152;-69
2021/01/25 08:31:38;;;;;;;51.13;33.75;;;1.50;90.50;;;;;;5047266;28;20064;-69
2021/01/25 08:34:28;;;;;;;60.90;39.42;;;1.50;90.60;;;;;;5046316;28;20075;-69
2021/01/25 08:37:02;;;;;;;71.55;44.63;;;1.40;90.70;;;;;;5048651;28;20602;-70
2021/01/25 08:39:39;;;;;;;56.73;39.10;;;1.40;90.80;;;;;;5047452;28;20065;-71
2021/01/25 08:42:15;;;;;;;69.15;46.95;;;1.40;90.80;;;;;;5045898;28;20035;-70
2021/01/25 08:44:51;;;;;;;58.08;38.35;;;1.30;90.90;;;;;;5050121;28;20069;-69
2021/01/25 08:47:26;;;;;;;53.60;35.65;;;1.30;91.00;;;;;;5045954;28;20548;-69
2021/01/25 08:49:52;;;;;;;54.38;34.42;;;1.30;91.10;;;;;;5049465;28;20433;-69
2021/01/25 08:52:29;;;;;;;58.10;38.22;;;1.40;91.20;;;;;;5047179;28;20171;-70
2021/01/25 08:55:11;;;;;;;54.60;34.75;;;1.40;91.20;;;;;;5047304;28;20037;-70
2021/01/25 08:57:40;;;;;;;58.22;37.03;;;1.50;91.20;;;;;;5046327;28;20503;-70
2021/01/25 09:00:18;;;;;;;58.42;37.13;;;1.50;91.10;;;;;;5046625;28;20033;-69
2021/01/25 09:02:45;;;;;;;58.45;38.10;;;1.60;90.90;;;;;;5048668;28;20591;-69
2021/01/25 09:05:13;;;;;;;54.58;34.67;;;1.80;90.80;;;;;;5046590;28;20512;-70
2021/01/25 09:07:39;;;;;;;53.90;34.65;;;1.90;90.60;;;;;;5046941;28;20036;-69
2021/01/25 09:10:07;;;;;;;55.15;34.42;;;2.00;90.20;;;;;;5047647;28;20036;-70
2021/01/25 09:12:33;;;;;;;49.40;33.00;;;2.00;89.90;;;;;;5050555;28;20033;-71
2021/01/25 09:14:59;;;;;;;48.63;32.25;;;2.10;89.70;;;;;;5046680;28;20056;-69
2021/01/25 09:17:25;;;;;;;56.00;34.80;;;2.30;89.40;;;;;;5046558;28;20121;-70
2021/01/25 09:19:51;;;;;;;54.17;34.47;;;2.40;89.30;;;;;;5046647;28;20037;-69
2021/01/25 09:22:18;;;;;;;55.25;33.85;;;2.50;88.80;;;;;;5046942;28;20029;-70
2021/01/25 09:24:44;;;;;;;54.15;34.78;;;2.50;88.60;;;;;;5044158;28;20041;-69
2021/01/25 09:27:11;;;;;;;59.65;35.80;;;2.60;88.40;;;;;;5046204;28;20507;-69
2021/01/25 09:29:37;;;;;;;48.78;33.03;;;2.60;88.60;;;;;;5047298;28;20127;-69
2021/01/25 09:32:05;;;;;;;49.10;32.85;;;2.70;88.60;;;;;;5046205;28;20041;-71
2021/01/25 09:34:30;;;;;;;52.70;34.45;;;2.70;88.40;;;;;;5050463;28;20507;-69
2021/01/25 09:36:56;;;;;;;47.72;34.50;;;2.70;88.20;;;;;;5048071;28;20032;-70
2021/01/25 09:39:22;;;;;;;51.15;33.40;;;2.70;88.60;;;;;;5049692;28;20033;-71
2021/01/25 09:41:48;;;;;;;50.58;33.70;;;2.60;88.20;;;;;;5047459;28;20037;-71
2021/01/25 09:44:16;;;;;;;51.35;35.58;;;2.60;88.60;;;;;;5042346;28;20090;-70
2021/01/25 09:46:42;;;;;;;54.55;36.25;;;2.60;88.60;;;;;;5049556;28;20033;-71
2021/01/25 09:49:08;;;;;;;51.13;34.50;;;2.60;88.50;;;;;;5047171;28;20033;-70
2021/01/25 09:51:34;;;;;;;52.55;35.30;;;2.80;88.20;;;;;;5046191;28;20076;-71
2021/01/25 09:54:00;;;;;;;51.10;34.58;;;2.80;87.80;;;;;;5047656;28;20048;-71
2021/01/25 09:56:25;;;;;;;54.08;37.95;;;3.00;87.40;;;;;;5044200;28;20593;-70
2021/01/25 09:58:51;;;;;;;44.83;31.08;;;3.10;87.20;;;;;;5046226;28;20407;-70
2021/01/25 10:01:17;;;;;;;49.15;34.13;;;3.10;87.00;;;;;;5046233;28;20171;-72
2021/01/25 10:03:43;;;;;;;44.38;31.33;;;3.30;86.80;;;;;;5044767;28;20098;-71
2021/01/25 10:06:08;;;;;;;48.60;31.77;;;3.40;86.60;;;;;;5048154;28;20041;-70
2021/01/25 10:08:36;;;;;;;47.28;32.15;;;3.40;86.70;;;;;;5046010;28;20366;-69
2021/01/25 10:11:05;;;;;;;47.20;31.42;;;3.50;86.80;;;;;;5046219;28;20052;-70
2021/01/25 10:13:32;;;;;;;48.20;31.40;;;3.60;86.50;;;;;;5046005;28;20060;-71
2021/01/25 10:15:57;;;;;;;45.53;30.02;;;3.60;86.30;;;;;;5046404;28;20053;-70
2021/01/25 10:18:23;;;;;;;41.78;28.85;;;3.70;86.30;;;;;;5045698;28;20064;-70
2021/01/25 10:20:49;;;;;;;40.15;28.05;;;3.90;85.60;;;;;;5045458;28;20041;-70
2021/01/25 10:23:15;;;;;;;39.95;27.38;;;4.10;85.20;;;;;;5045027;28;20116;-70
2021/01/25 10:25:40;;;;;;;40.25;27.52;;;4.20;83.90;;;;;;5042612;28;20061;-71
2021/01/25 10:28:06;;;;;;;37.83;26.63;;;4.30;83.50;;;;;;5046484;28;20449;-72
2021/01/25 10:30:32;;;;;;;40.30;24.65;;;4.50;83.30;;;;;;5045395;28;20044;-69
2021/01/25 10:32:57;;;;;;;33.20;23.15;;;4.60;82.50;;;;;;5044538;28;20040;-69
2021/01/25 10:35:24;;;;;;;34.33;24.58;;;4.60;81.70;;;;;;5046299;28;20481;-70
2021/01/25 10:37:51;;;;;;;35.05;24.15;;;4.50;81.80;;;;;;5046085;28;20113;-70
2021/01/25 10:40:18;;;;;;;30.40;22.55;;;4.50;81.70;;;;;;5045755;28;20037;-70
2021/01/25 10:42:44;;;;;;;30.92;21.42;;;4.60;82.00;;;;;;5049130;28;20047;-70
2021/01/25 10:45:10;;;;;;;28.70;19.95;;;4.60;81.00;;;;;;5045248;28;20037;-70
2021/01/25 10:47:37;;;;;;;28.90;19.42;;;4.60;80.50;;;;;;5047159;28;20033;-73
2021/01/25 10:50:05;;;;;;;26.20;17.23;;;4.70;81.10;;;;;;5044935;28;20035;-70
2021/01/25 10:52:32;;;;;;;23.65;17.38;;;4.80;80.00;;;;;;5043253;28;20025;-71
2021/01/25 10:54:58;;;;;;;27.75;19.40;;;4.80;79.40;;;;;;5046176;28;20051;-70
2021/01/25 10:57:24;;;;;;;24.27;16.75;;;4.90;80.20;;;;;;5045927;28;20112;-70
2021/01/25 10:59:49;;;;;;;25.63;17.02;;;4.90;80.00;;;;;;5044711;28;20037;-72
2021/01/25 11:02:17;;;;;;;22.75;15.32;;;5.00;79.30;;;;;;5046759;28;20025;-72
2021/01/25 11:04:43;;;;;;;27.25;17.50;;;5.00;78.10;;;;;;5044965;28;20029;-70
2021/01/25 11:07:09;;;;;;;27.30;19.27;;;5.00;80.00;;;;;;5046332;28;20037;-69
2021/01/25 11:09:34;;;;;;;25.77;18.52;;;5.10;80.60;;;;;;5042345;28;20037;-70
2021/01/25 11:12:01;;;;;;;32.28;22.98;;;5.10;81.20;;;;;;5043061;28;20032;-71
2021/01/25 11:14:27;;;;;;;25.45;16.85;;;5.10;81.00;;;;;;5044496;28;20037;-70
2021/01/25 11:16:52;;;;;;;23.70;17.05;;;5.10;80.20;;;;;;5044755;28;20311;-70
2021/01/25 11:19:18;;;;;;;26.05;18.05;;;5.20;79.90;;;;;;5043234;28;20075;-69
2021/01/25 11:21:44;;;;;;;25.55;17.63;;;5.20;80.50;;;;;;5045369;28;20413;-72
2021/01/25 11:24:10;;;;;;;23.98;16.40;;;5.10;80.40;;;;;;5040155;28;20137;-72
2021/01/25 11:26:39;;;;;;;23.27;16.33;;;5.10;80.90;;;;;;5044586;28;20029;-70
2021/01/25 11:29:10;;;;;;;23.85;17.38;;;5.20;79.90;;;;;;5043549;28;20029;-70
2021/01/25 11:31:36;;;;;;;29.48;21.13;;;5.40;80.90;;;;;;5045418;28;20033;-71
2021/01/25 11:34:02;;;;;;;36.67;25.42;;;5.60;80.60;;;;;;5043902;28;20029;-70
2021/01/25 11:36:27;;;;;;;24.25;17.65;;;5.60;79.80;;;;;;5039547;28;20033;-70
2021/01/25 11:38:53;;;;;;;26.55;18.17;;;5.70;78.90;;;;;;5044080;28;20029;-70
2021/01/25 11:41:19;;;;;;;21.48;14.27;;;5.80;79.30;;;;;;5043781;28;20151;-70
2021/01/25 11:43:45;;;;;;;23.73;15.68;;;5.90;77.70;;;;;;5037921;28;20152;-71
2021/01/25 11:46:11;;;;;;;24.17;17.38;;;5.60;78.00;;;;;;5029043;28;20088;-71
2021/01/25 11:48:37;;;;;;;22.83;16.20;;;5.60;79.30;;;;;;5040071;28;20389;-71
2021/01/25 11:51:02;;;;;;;18.38;11.52;;;5.50;79.40;;;;;;5033998;28;20468;-70
2021/01/25 11:53:28;;;;;;;10.63;4.95;;;5.50;79.90;;;;;;5044205;28;20061;-70
2021/01/25 11:55:54;;;;;;;7.60;3.67;;;5.30;79.90;;;;;;5028592;28;20063;-69
2021/01/25 11:58:19;;;;;;;5.97;2.80;;;5.00;80.70;;;;;;5039971;28;20446;-71
2021/01/25 12:00:45;;;;;;;6.78;2.90;;;4.70;81.70;;;;;;5044939;28;20048;-69
2021/01/25 12:03:10;;;;;;;4.53;2.38;;;4.40;83.40;;;;;;5041265;28;20151;-70
2021/01/25 12:05:36;;;;;;;6.35;2.80;;;4.00;84.00;;;;;;5039093;28;20068;-71
2021/01/25 12:08:03;;;;;;;6.32;2.50;;;3.70;85.60;;;;;;5037434;28;20036;-68
2021/01/25 12:10:30;;;;;;;7.10;3.50;;;3.50;86.60;;;;;;5039802;28;20096;-69
2021/01/25 12:12:56;;;;;;;6.93;3.50;;;3.40;87.40;;;;;;5042114;28;20044;-71
2021/01/25 12:15:22;;;;;;;8.77;4.85;;;3.30;87.80;;;;;;5045309;28;20140;-69
2021/01/25 12:17:47;;;;;;;10.02;5.80;;;3.40;88.30;;;;;;5045161;28;20033;-68
2021/01/25 12:20:14;;;;;;;7.35;3.78;;;3.50;88.30;;;;;;5045255;28;20406;-68
2021/01/25 12:22:40;;;;;;;7.20;3.55;;;3.60;88.00;;;;;;5049033;28;20025;-69
2021/01/25 12:25:06;;;;;;;10.80;6.05;;;3.60;88.10;;;;;;5048258;28;20064;-69
2021/01/25 12:27:31;;;;;;;20.88;14.38;;;3.70;88.20;;;;;;5059936;28;20120;-69
2021/01/25 12:29:57;;;;;;;14.70;8.68;;;3.80;88.00;;;;;;5048784;28;20116;-71
2021/01/25 12:32:23;;;;;;;10.80;6.32;;;4.00;88.00;;;;;;5047099;28;20575;-71
2021/01/25 12:34:50;;;;;;;11.77;5.43;;;4.10;87.40;;;;;;5049553;28;21613;-70
2021/01/25 12:37:16;;;;;;;9.45;4.25;;;4.20;86.70;;;;;;5048249;28;20029;-70
2021/01/25 12:39:41;;;;;;;9.52;4.38;;;4.40;86.20;;;;;;5048535;28;20079;-69